Terminal Aerodrome Forecast
Issued by NWS Bismarck, ND

Home | Current Version | Previous Version | Graphics & Text | Print | Product List | Glossary On
Versions: 1 2 3 4 5 6 7 8 9 10 11 12 13 14 15 16 17 18 19
000
FTUS43 KBIS 231100
TAFISN
TAF
KISN 231132Z 2312/2412 06015KT P6SM -SHRA OVC015
     FM231500 06015G25KT 3SM SHRA OVC006
     FM232200 04015G25KT 2SM +SHRA BR OVC006
     FM240700 02015KT 5SM -SHRA OVC004=

USA.gov is the U.S. government's official web portal to all federal, state and local government web resources and services.